createdAt,value
2023-05-14T00:00:33.976Z,85.42
2023-05-14T00:03:00.810Z,86.00
2023-05-14T00:05:27.483Z,86.60
2023-05-14T00:07:54.086Z,87.03
2023-05-14T00:10:22.261Z,87.43
2023-05-14T00:12:51.657Z,87.30
2023-05-14T00:15:18.528Z,87.25
2023-05-14T00:17:45.651Z,86.95
2023-05-14T00:20:12.582Z,87.44
2023-05-14T00:22:40.228Z,86.97
2023-05-14T00:25:08.207Z,87.29
2023-05-14T00:27:37.677Z,88.10
2023-05-14T00:30:06.898Z,88.89
2023-05-14T00:32:34.108Z,89.17
2023-05-14T00:35:02.980Z,89.20
2023-05-14T00:37:29.734Z,88.83
2023-05-14T00:39:56.577Z,88.86
2023-05-14T00:42:23.230Z,89.14
2023-05-14T00:44:49.864Z,89.58
2023-05-14T00:47:16.570Z,89.39
2023-05-14T00:49:43.732Z,88.62
2023-05-14T00:52:11.502Z,89.02
2023-05-14T00:54:38.290Z,88.57
2023-05-14T00:57:06.288Z,87.90
2023-05-14T00:59:33.147Z,87.37
2023-05-14T01:01:59.742Z,87.13
2023-05-14T01:04:26.571Z,87.08
2023-05-14T01:07:07.981Z,87.47
2023-05-14T01:09:59.867Z,87.62
2023-05-14T01:12:52.509Z,87.02
2023-05-14T01:15:26.805Z,87.02
2023-05-14T01:18:00.179Z,86.49
2023-05-14T01:20:27.104Z,86.36
2023-05-14T01:22:53.777Z,85.19
2023-05-14T01:25:20.625Z,84.39
2023-05-14T01:27:52.796Z,83.64
2023-05-14T01:30:48.698Z,83.56
2023-05-14T01:33:21.134Z,83.81
2023-05-14T01:35:49.070Z,83.60
2023-05-14T01:38:18.591Z,83.28
2023-05-14T01:40:47.055Z,83.58
2023-05-14T01:43:15.154Z,82.68
2023-05-14T01:45:42.333Z,82.14
2023-05-14T01:48:09.067Z,82.68
2023-05-14T01:50:35.744Z,82.72
2023-05-14T01:53:02.471Z,82.03
2023-05-14T01:55:29.108Z,82.62
2023-05-14T01:57:55.928Z,82.87
2023-05-14T02:00:25.430Z,82.74
2023-05-14T02:02:52.282Z,82.59
2023-05-14T02:05:19.357Z,82.70
2023-05-14T02:07:46.018Z,83.00
2023-05-14T02:10:12.653Z,83.57
2023-05-14T02:12:39.280Z,83.78
2023-05-14T02:15:06.430Z,84.46
2023-05-14T02:17:33.773Z,85.00
2023-05-14T02:20:00.470Z,85.14
2023-05-14T02:22:27.093Z,85.17
2023-05-14T02:24:53.849Z,85.36
2023-05-14T02:27:21.469Z,85.41
2023-05-14T02:29:48.108Z,85.74
2023-05-14T02:32:14.801Z,86.15
2023-05-14T02:34:41.556Z,85.25
2023-05-14T02:37:08.181Z,86.52
2023-05-14T02:39:34.920Z,86.86
2023-05-14T02:42:01.648Z,85.70
2023-05-14T02:44:28.229Z,85.97
2023-05-14T02:46:54.902Z,86.21
2023-05-14T02:49:21.529Z,86.37
2023-05-14T02:51:48.176Z,86.57
2023-05-14T02:54:16.509Z,85.59
2023-05-14T02:56:43.265Z,85.32
2023-05-14T02:59:10.016Z,86.09
2023-05-14T03:01:37.126Z,85.64
2023-05-14T03:04:04.470Z,85.37
2023-05-14T03:06:31.546Z,85.23
2023-05-14T03:08:58.170Z,85.14
2023-05-14T03:11:24.899Z,85.50
2023-05-14T03:13:51.603Z,85.04
2023-05-14T03:16:18.364Z,84.93
2023-05-14T03:18:45.198Z,85.31
2023-05-14T03:21:11.953Z,84.66
2023-05-14T03:23:38.656Z,84.94
2023-05-14T03:26:05.511Z,84.89
2023-05-14T03:28:32.251Z,84.90
2023-05-14T03:30:58.960Z,84.30
2023-05-14T03:33:25.847Z,84.58
2023-05-14T03:35:52.490Z,85.27
2023-05-14T03:38:19.399Z,85.02
2023-05-14T03:40:47.386Z,84.49
2023-05-14T03:43:14.156Z,84.81
2023-05-14T03:45:40.883Z,84.06
2023-05-14T03:48:07.741Z,83.52
2023-05-14T03:50:34.461Z,83.32
2023-05-14T03:53:01.162Z,84.23
2023-05-14T03:55:27.947Z,83.77
2023-05-14T03:57:54.601Z,85.01
2023-05-14T04:00:21.809Z,83.77
2023-05-14T04:02:48.662Z,84.01
2023-05-14T04:05:15.378Z,83.83
2023-05-14T04:07:42.005Z,84.11
2023-05-14T04:10:10.136Z,84.59
2023-05-14T04:12:36.836Z,84.92
2023-05-14T04:15:03.749Z,84.69
2023-05-14T04:17:30.456Z,85.32
2023-05-14T04:19:57.054Z,86.06
2023-05-14T04:22:23.646Z,86.85
2023-05-14T04:24:51.553Z,86.02
2023-05-14T04:27:21.638Z,86.29
2023-05-14T04:29:49.396Z,86.62
2023-05-14T04:32:16.184Z,88.09
2023-05-14T04:34:42.805Z,87.57
2023-05-14T04:37:10.137Z,87.31
2023-05-14T04:39:37.148Z,87.90
2023-05-14T04:42:04.076Z,87.99
2023-05-14T04:44:30.733Z,87.74
2023-05-14T04:46:57.666Z,87.65
2023-05-14T04:49:24.340Z,86.92
2023-05-14T04:51:51.274Z,86.85
2023-05-14T04:54:18.004Z,87.12
2023-05-14T04:56:44.713Z,86.76
2023-05-14T04:59:11.321Z,87.04
2023-05-14T05:01:38.213Z,86.66
2023-05-14T05:04:05.208Z,86.56
2023-05-14T05:06:31.844Z,86.17
2023-05-14T05:08:59.995Z,85.79
2023-05-14T05:11:27.924Z,85.67
2023-05-14T05:13:54.600Z,86.81
2023-05-14T05:16:21.394Z,87.26
2023-05-14T05:18:48.116Z,87.07
2023-05-14T05:21:14.762Z,87.37
2023-05-14T05:23:41.403Z,87.02
2023-05-14T05:26:08.060Z,87.40
2023-05-14T05:28:34.703Z,87.36
2023-05-14T05:31:01.400Z,87.30
2023-05-14T05:33:28.118Z,87.40
2023-05-14T05:35:54.913Z,87.57
2023-05-14T05:38:21.578Z,87.22
2023-05-14T05:40:48.450Z,87.91
2023-05-14T05:43:15.507Z,86.79
2023-05-14T05:45:42.247Z,86.05
2023-05-14T05:48:08.992Z,86.41
2023-05-14T05:50:35.608Z,86.89
2023-05-14T05:53:02.870Z,86.87
2023-05-14T05:55:30.025Z,86.76
2023-05-14T05:57:56.661Z,86.97
2023-05-14T06:00:24.083Z,86.75
2023-05-14T06:02:51.106Z,86.18
2023-05-14T06:05:18.186Z,85.32
2023-05-14T06:07:44.914Z,85.47
2023-05-14T06:10:11.654Z,84.99
2023-05-14T06:12:38.412Z,84.65
2023-05-14T06:15:05.461Z,84.00
2023-05-14T06:17:32.301Z,84.25
2023-05-14T06:19:59.047Z,84.29
2023-05-14T06:22:25.658Z,84.57
2023-05-14T06:24:53.447Z,83.64
2023-05-14T06:27:20.088Z,83.64
2023-05-14T06:29:46.678Z,83.45
2023-05-14T06:32:15.734Z,84.21
2023-05-14T06:34:42.742Z,83.21
2023-05-14T06:37:10.444Z,83.03
2023-05-14T06:39:38.935Z,82.88
2023-05-14T06:42:05.835Z,83.03
2023-05-14T06:44:32.533Z,83.99
2023-05-14T06:46:59.168Z,83.64
2023-05-14T06:49:25.858Z,83.99
2023-05-14T06:51:52.495Z,83.25
2023-05-14T06:54:20.565Z,84.09
2023-05-14T06:56:47.338Z,82.95
2023-05-14T06:59:13.979Z,82.90
2023-05-14T07:01:41.199Z,81.91
2023-05-14T07:04:08.105Z,81.17
2023-05-14T07:06:34.965Z,80.39
2023-05-14T07:09:02.235Z,81.08
2023-05-14T07:11:29.076Z,80.87
2023-05-14T07:13:55.971Z,81.63
2023-05-14T07:16:22.737Z,81.93
2023-05-14T07:18:49.443Z,81.77
2023-05-14T07:21:16.430Z,82.35
2023-05-14T07:23:43.003Z,83.16
2023-05-14T07:26:09.714Z,82.58
2023-05-14T07:28:36.423Z,81.96
2023-05-14T07:31:08.893Z,82.22
2023-05-14T07:33:36.713Z,82.27
2023-05-14T07:36:03.401Z,82.45
2023-05-14T07:38:30.152Z,83.52
2023-05-14T07:40:56.901Z,83.37
2023-05-14T07:43:23.655Z,83.70
2023-05-14T07:45:50.396Z,84.22
2023-05-14T07:48:17.329Z,84.12
2023-05-14T07:50:44.032Z,85.06
2023-05-14T07:53:10.834Z,84.50
2023-05-14T07:55:37.557Z,83.60
2023-05-14T07:58:04.193Z,83.81
2023-05-14T08:00:30.905Z,83.37
2023-05-14T08:02:57.625Z,83.46
2023-05-14T08:05:24.475Z,83.42
2023-05-14T08:07:51.115Z,83.32
2023-05-14T08:10:17.744Z,83.95
2023-05-14T08:12:44.512Z,83.11
2023-05-14T08:15:11.353Z,82.66
2023-05-14T08:17:38.031Z,83.02
2023-05-14T08:20:06.832Z,82.03
2023-05-14T08:22:33.530Z,82.73
2023-05-14T08:25:01.027Z,82.17
2023-05-14T08:27:28.166Z,82.12
2023-05-14T08:29:54.830Z,82.22
2023-05-14T08:32:23.824Z,82.49
2023-05-14T08:34:51.886Z,81.47
2023-05-14T08:37:18.937Z,82.68
2023-05-14T08:39:45.598Z,82.81
2023-05-14T08:42:13.765Z,83.47
2023-05-14T08:44:49.076Z,83.25
2023-05-14T08:47:18.565Z,83.21
2023-05-14T08:49:49.692Z,84.21
2023-05-14T08:52:18.089Z,85.36
2023-05-14T08:54:46.920Z,85.45
2023-05-14T08:57:15.341Z,85.17
2023-05-14T08:59:41.960Z,85.47
2023-05-14T09:02:12.833Z,85.64
2023-05-14T09:04:41.075Z,86.98
2023-05-14T09:07:07.949Z,87.05
2023-05-14T09:09:36.138Z,87.41
2023-05-14T09:12:03.213Z,87.88
2023-05-14T09:14:29.903Z,87.86
2023-05-14T09:16:57.090Z,88.55
2023-05-14T09:19:24.252Z,88.67
2023-05-14T09:21:51.122Z,88.20
2023-05-14T09:24:21.677Z,89.05
2023-05-14T09:26:56.724Z,88.84
2023-05-14T09:29:30.003Z,89.75
2023-05-14T09:31:58.224Z,89.65
2023-05-14T09:34:27.259Z,89.39
2023-05-14T09:37:02.625Z,89.91
2023-05-14T09:39:31.283Z,89.34
2023-05-14T09:41:58.031Z,89.28
2023-05-14T09:44:25.601Z,88.97
2023-05-14T09:46:53.259Z,88.62
2023-05-14T09:49:20.638Z,87.83
2023-05-14T09:51:48.966Z,87.54
2023-05-14T09:54:16.094Z,88.05
2023-05-14T09:56:44.112Z,87.69
2023-05-14T09:59:11.346Z,87.49
2023-05-14T10:01:39.532Z,86.36
2023-05-14T10:04:08.295Z,85.00
2023-05-14T10:06:37.788Z,85.55
2023-05-14T10:09:13.515Z,84.34
2023-05-14T10:11:45.401Z,84.49
2023-05-14T10:14:24.962Z,84.39
2023-05-14T10:16:53.072Z,83.41
2023-05-14T10:19:23.759Z,83.33
2023-05-14T10:22:01.104Z,83.29
2023-05-14T10:24:28.374Z,83.43
2023-05-14T10:26:56.082Z,83.42
2023-05-14T10:29:35.980Z,83.93
2023-05-14T10:32:06.771Z,84.92
2023-05-14T10:34:37.829Z,84.71
2023-05-14T10:37:06.428Z,85.19
2023-05-14T10:39:50.890Z,84.94
2023-05-14T10:42:32.569Z,85.34
2023-05-14T10:45:08.248Z,84.76
2023-05-14T10:47:37.192Z,84.98
2023-05-14T10:50:06.391Z,85.74
2023-05-14T10:52:35.050Z,85.92
2023-05-14T10:55:04.204Z,85.03
2023-05-14T10:57:32.714Z,84.47
2023-05-14T11:00:02.959Z,85.22
2023-05-14T11:02:32.141Z,86.01
2023-05-14T11:05:03.927Z,85.39
2023-05-14T11:07:33.158Z,86.33
2023-05-14T11:10:07.927Z,85.95
2023-05-14T11:12:36.360Z,85.47
2023-05-14T11:15:06.531Z,85.75
2023-05-14T11:17:35.919Z,85.12
2023-05-14T11:20:04.638Z,84.48
2023-05-14T11:22:32.248Z,85.64
2023-05-14T11:24:59.004Z,85.34
2023-05-14T11:27:26.418Z,85.12
2023-05-14T11:29:53.130Z,83.98
2023-05-14T11:32:20.275Z,84.94
2023-05-14T11:34:48.528Z,83.72
2023-05-14T11:37:17.234Z,84.25
2023-05-14T11:39:49.861Z,84.14
2023-05-14T11:42:18.770Z,84.47
2023-05-14T11:44:50.385Z,85.26
2023-05-14T11:47:18.723Z,84.95
2023-05-14T11:49:45.975Z,84.06
2023-05-14T11:52:14.923Z,84.26
2023-05-14T11:54:43.300Z,84.83
2023-05-14T11:57:15.621Z,84.69
2023-05-14T11:59:42.579Z,84.33
2023-05-14T12:02:13.672Z,84.19
2023-05-14T12:04:42.916Z,83.69
2023-05-14T12:07:13.426Z,84.19
2023-05-14T12:09:51.432Z,83.87
2023-05-14T12:12:20.974Z,83.26
2023-05-14T12:14:48.252Z,82.82
2023-05-14T12:17:19.786Z,83.05
2023-05-14T12:19:49.084Z,80.46
2023-05-14T12:22:18.160Z,81.20
2023-05-14T12:24:56.866Z,81.41
2023-05-14T12:27:24.666Z,82.39
2023-05-14T12:30:09.190Z,81.53
2023-05-14T12:32:45.941Z,81.41
2023-05-14T12:35:12.655Z,80.96
2023-05-14T12:37:40.117Z,81.27
2023-05-14T12:40:21.320Z,80.58
2023-05-14T12:42:48.152Z,81.92
2023-05-14T12:45:14.830Z,81.83
2023-05-14T12:47:41.592Z,81.71
2023-05-14T12:50:09.144Z,82.41
2023-05-14T12:52:39.223Z,81.98
2023-05-14T12:55:07.765Z,82.15
2023-05-14T12:57:35.663Z,82.13
2023-05-14T13:00:06.444Z,83.07
2023-05-14T13:02:33.098Z,83.24
2023-05-14T13:05:10.329Z,84.85
2023-05-14T13:07:37.309Z,84.79
2023-05-14T13:10:05.881Z,85.29
2023-05-14T13:12:32.866Z,85.73
2023-05-14T13:14:59.471Z,86.52
2023-05-14T13:17:26.221Z,85.96
2023-05-14T13:19:52.865Z,85.53
2023-05-14T13:22:19.519Z,85.69
2023-05-14T13:24:46.466Z,85.39
2023-05-14T13:27:13.150Z,84.98
2023-05-14T13:29:39.738Z,85.37
2023-05-14T13:32:06.777Z,84.28
2023-05-14T13:34:33.736Z,83.99
2023-05-14T13:37:00.405Z,83.73
2023-05-14T13:39:29.549Z,82.76
2023-05-14T13:41:56.971Z,83.32
2023-05-14T13:44:24.087Z,81.56
2023-05-14T13:46:51.013Z,81.49
2023-05-14T13:49:17.761Z,81.95
2023-05-14T13:51:44.922Z,81.87
2023-05-14T13:54:11.721Z,82.04
2023-05-14T13:56:38.478Z,81.07
2023-05-14T13:59:05.960Z,80.59
2023-05-14T14:01:32.736Z,80.66
2023-05-14T14:03:59.508Z,80.93
2023-05-14T14:06:30.048Z,81.04
2023-05-14T14:08:56.726Z,80.33
2023-05-14T14:11:23.498Z,81.02
2023-05-14T14:13:50.133Z,80.78
2023-05-14T14:16:16.954Z,80.91
2023-05-14T14:18:43.705Z,80.47
2023-05-14T14:21:10.770Z,81.78
2023-05-14T14:23:37.729Z,80.45
2023-05-14T14:26:04.470Z,81.33
2023-05-14T14:28:31.531Z,81.41
2023-05-14T14:30:58.216Z,81.00
2023-05-14T14:33:25.096Z,81.23
2023-05-14T14:35:51.933Z,80.83
2023-05-14T14:38:18.864Z,81.48
2023-05-14T14:40:46.291Z,80.91
2023-05-14T14:43:13.056Z,81.39
2023-05-14T14:45:39.778Z,80.78
2023-05-14T14:48:26.354Z,81.52
2023-05-14T14:50:53.629Z,81.45
2023-05-14T14:53:23.967Z,81.67
2023-05-14T14:55:51.317Z,80.65
2023-05-14T14:58:19.596Z,80.84
2023-05-14T15:00:47.149Z,80.39
2023-05-14T15:03:15.053Z,80.48
2023-05-14T15:05:41.965Z,80.36
2023-05-14T15:08:11.835Z,80.35
2023-05-14T15:10:38.806Z,80.26
2023-05-14T15:13:06.533Z,79.59
2023-05-14T15:15:36.357Z,79.34
2023-05-14T15:18:03.464Z,79.29
2023-05-14T15:20:30.382Z,79.04
2023-05-14T15:22:57.134Z,77.96
2023-05-14T15:25:25.130Z,78.00
2023-05-14T15:27:52.246Z,77.66
2023-05-14T15:30:18.948Z,77.36
2023-05-14T15:32:46.604Z,77.26
2023-05-14T15:35:16.065Z,76.63
2023-05-14T15:37:44.154Z,77.20
2023-05-14T15:40:11.806Z,76.99
2023-05-14T15:42:40.086Z,76.83
2023-05-14T15:45:07.090Z,77.06
2023-05-14T15:47:35.502Z,76.79
2023-05-14T15:50:02.493Z,77.03
2023-05-14T15:52:29.156Z,76.93
2023-05-14T15:54:57.391Z,76.68
2023-05-14T15:57:24.201Z,76.41
2023-05-14T15:59:51.700Z,75.68
2023-05-14T16:02:18.568Z,75.79
2023-05-14T16:04:45.348Z,75.14
2023-05-14T16:07:12.276Z,75.20
2023-05-14T16:09:39.498Z,74.92
2023-05-14T16:12:07.477Z,74.65
2023-05-14T16:14:35.297Z,73.80
2023-05-14T16:17:02.217Z,73.73
2023-05-14T16:19:28.952Z,73.26
2023-05-14T16:21:55.586Z,73.60
2023-05-14T16:24:22.316Z,73.59
2023-05-14T16:26:48.977Z,73.63
2023-05-14T16:29:16.781Z,73.85
2023-05-14T16:31:43.571Z,74.65
2023-05-14T16:34:10.294Z,74.56
2023-05-14T16:36:37.464Z,74.78
2023-05-14T16:39:07.749Z,74.38
2023-05-14T16:41:35.970Z,74.52
2023-05-14T16:44:02.871Z,75.26
2023-05-14T16:46:30.656Z,75.77
2023-05-14T16:48:57.460Z,75.43
2023-05-14T16:51:24.099Z,76.14
2023-05-14T16:53:51.882Z,76.80
2023-05-14T16:56:19.037Z,76.19
2023-05-14T16:58:45.773Z,76.27
2023-05-14T17:01:12.643Z,76.17
2023-05-14T17:03:39.537Z,75.53
2023-05-14T17:06:07.063Z,75.98
2023-05-14T17:08:35.730Z,76.16
2023-05-14T17:11:07.552Z,75.71
2023-05-14T17:13:37.160Z,75.79
2023-05-14T17:16:04.535Z,76.10
2023-05-14T17:18:32.774Z,75.39
2023-05-14T17:20:59.550Z,75.85
2023-05-14T17:23:26.297Z,75.71
2023-05-14T17:25:53.065Z,75.13
2023-05-14T17:28:19.801Z,76.16
2023-05-14T17:30:46.740Z,76.28
2023-05-14T17:33:13.506Z,76.35
2023-05-14T17:35:40.332Z,75.58
2023-05-14T17:38:06.976Z,76.09
2023-05-14T17:40:34.241Z,75.96
2023-05-14T17:43:01.249Z,76.20
2023-05-14T17:45:30.601Z,76.18
2023-05-14T17:48:01.176Z,75.60
2023-05-14T17:50:27.948Z,75.83
2023-05-14T17:52:56.656Z,75.76
2023-05-14T17:55:23.570Z,76.28
2023-05-14T17:57:50.353Z,76.44
2023-05-14T18:00:17.290Z,77.54
2023-05-14T18:02:43.996Z,77.57
2023-05-14T18:05:11.859Z,77.24
2023-05-14T18:07:38.463Z,77.39
2023-05-14T18:10:05.702Z,77.06
2023-05-14T18:12:32.349Z,77.85
2023-05-14T18:14:58.979Z,77.35
2023-05-14T18:17:25.616Z,76.69
2023-05-14T18:19:52.470Z,76.34
2023-05-14T18:22:21.550Z,76.00
2023-05-14T18:24:48.293Z,76.20
2023-05-14T18:27:14.956Z,76.01
2023-05-14T18:29:42.734Z,76.02
2023-05-14T18:32:09.405Z,75.43
2023-05-14T18:34:37.228Z,76.00
2023-05-14T18:37:03.897Z,75.95
2023-05-14T18:39:30.708Z,76.02
2023-05-14T18:41:57.420Z,75.48
2023-05-14T18:44:24.213Z,75.26
2023-05-14T18:46:50.971Z,75.32
2023-05-14T18:49:17.654Z,75.06
2023-05-14T18:51:44.359Z,75.03
2023-05-14T18:54:10.953Z,75.27
2023-05-14T18:56:38.005Z,75.27
2023-05-14T18:59:04.592Z,74.89
2023-05-14T19:01:31.443Z,75.00
2023-05-14T19:03:58.425Z,74.76
2023-05-14T19:06:25.234Z,74.90
2023-05-14T19:08:52.176Z,74.65
2023-05-14T19:11:18.943Z,74.71
2023-05-14T19:13:46.826Z,74.85
2023-05-14T19:16:13.641Z,74.97
2023-05-14T19:18:40.607Z,75.19
2023-05-14T19:21:07.321Z,75.31
2023-05-14T19:23:33.964Z,74.95
2023-05-14T19:26:01.178Z,75.15
2023-05-14T19:28:27.826Z,75.40
2023-05-14T19:30:54.474Z,75.43
2023-05-14T19:33:21.149Z,75.37
2023-05-14T19:35:47.764Z,76.16
2023-05-14T19:38:15.105Z,76.31
2023-05-14T19:40:43.032Z,76.34
2023-05-14T19:43:11.970Z,76.40
2023-05-14T19:45:39.377Z,76.32
2023-05-14T19:48:06.759Z,76.01
2023-05-14T19:50:34.112Z,76.43
2023-05-14T19:53:02.641Z,76.38
2023-05-14T19:55:29.312Z,77.00
2023-05-14T19:57:55.955Z,76.31
2023-05-14T20:00:22.868Z,76.63
2023-05-14T20:02:49.643Z,76.44
2023-05-14T20:05:16.628Z,76.08
2023-05-14T20:07:43.842Z,76.89
2023-05-14T20:10:10.961Z,76.77
2023-05-14T20:12:37.602Z,76.43
2023-05-14T20:15:04.916Z,76.51
2023-05-14T20:17:31.700Z,76.91
2023-05-14T20:19:58.342Z,76.82
2023-05-14T20:22:24.984Z,77.11
2023-05-14T20:24:52.730Z,76.82
2023-05-14T20:27:19.478Z,76.46
2023-05-14T20:29:47.051Z,76.64
2023-05-14T20:32:13.862Z,77.03
2023-05-14T20:34:40.468Z,76.34
2023-05-14T20:37:08.104Z,76.16
2023-05-14T20:39:34.789Z,76.44
2023-05-14T20:42:01.622Z,76.23
2023-05-14T20:44:28.249Z,75.97
2023-05-14T20:46:55.011Z,75.62
2023-05-14T20:49:21.684Z,75.62
2023-05-14T20:51:48.455Z,75.85
2023-05-14T20:54:15.033Z,75.40
2023-05-14T20:56:41.671Z,75.77
2023-05-14T20:59:08.433Z,75.14
2023-05-14T21:01:35.156Z,75.47
2023-05-14T21:04:02.007Z,76.13
2023-05-14T21:06:28.740Z,76.88
2023-05-14T21:08:55.428Z,77.30
2023-05-14T21:11:23.084Z,76.81
2023-05-14T21:13:49.674Z,77.22
2023-05-14T21:16:16.410Z,78.06
2023-05-14T21:18:43.243Z,77.63
2023-05-14T21:21:09.877Z,77.63
2023-05-14T21:23:36.526Z,77.91
2023-05-14T21:26:03.265Z,78.03
2023-05-14T21:28:29.833Z,77.77
2023-05-14T21:30:56.505Z,77.40
2023-05-14T21:33:23.802Z,77.10
2023-05-14T21:35:50.501Z,78.01
2023-05-14T21:38:17.308Z,77.84
2023-05-14T21:40:43.971Z,77.47
2023-05-14T21:43:10.643Z,77.32
2023-05-14T21:45:37.348Z,76.91
2023-05-14T21:48:04.761Z,76.78
2023-05-14T21:50:31.464Z,76.58
2023-05-14T21:52:58.156Z,77.04
2023-05-14T21:55:25.842Z,76.61
2023-05-14T21:57:52.780Z,76.67
2023-05-14T22:00:23.477Z,77.02
2023-05-14T22:02:52.225Z,77.93
2023-05-14T22:05:19.588Z,79.52
2023-05-14T22:07:46.368Z,80.27
2023-05-14T22:10:14.271Z,80.63
2023-05-14T22:12:41.649Z,81.66
2023-05-14T22:15:08.855Z,82.01
2023-05-14T22:17:38.018Z,81.67
2023-05-14T22:20:06.809Z,82.94
2023-05-14T22:22:34.383Z,82.21
2023-05-14T22:25:01.280Z,83.17
2023-05-14T22:27:27.965Z,83.25
2023-05-14T22:29:55.260Z,83.34
2023-05-14T22:32:21.969Z,82.96
2023-05-14T22:34:48.805Z,82.17
2023-05-14T22:37:15.752Z,82.51
2023-05-14T22:39:42.771Z,82.60
2023-05-14T22:42:09.449Z,82.52
2023-05-14T22:44:37.186Z,82.66
2023-05-14T22:47:07.327Z,83.77
2023-05-14T22:49:33.963Z,82.69
2023-05-14T22:52:00.796Z,83.05
2023-05-14T22:54:27.445Z,83.99
2023-05-14T22:56:54.198Z,83.29
2023-05-14T22:59:22.722Z,84.15
2023-05-14T23:01:50.478Z,84.15
2023-05-14T23:04:17.319Z,84.32
2023-05-14T23:06:44.454Z,84.31
2023-05-14T23:09:11.037Z,83.70
2023-05-14T23:11:37.777Z,84.65
2023-05-14T23:14:04.391Z,85.23
2023-05-14T23:16:31.866Z,85.43
2023-05-14T23:18:58.607Z,86.90
2023-05-14T23:21:25.609Z,86.76
2023-05-14T23:23:52.251Z,86.45
2023-05-14T23:26:18.952Z,86.66
2023-05-14T23:28:47.438Z,86.23
2023-05-14T23:31:14.281Z,86.28
2023-05-14T23:33:41.114Z,86.88
2023-05-14T23:36:08.295Z,85.93
2023-05-14T23:38:35.008Z,86.06
2023-05-14T23:41:01.694Z,87.63
2023-05-14T23:43:28.327Z,88.06
2023-05-14T23:45:55.065Z,87.23
2023-05-14T23:48:21.717Z,87.89
2023-05-14T23:50:48.302Z,87.27
2023-05-14T23:53:14.877Z,87.34
2023-05-14T23:55:41.617Z,87.60
2023-05-14T23:58:08.333Z,87.82
